Time;durP1;ratioP1;P1;durP2;ratioP2;P2;SDS_P1;SDS_P2;PMS_P1;PMS_P2;Temp;Humidity;BMP_temperature;BMP_pressure;BME280_temperature;BME280_humidity;BME280_pressure;Samples;Min_cycle;Max_cycle;Signal;HPM_P1;HPM_P2
2021/11/02 00:02:10;;;;;;;4.25;1.20;;;;;;;;;;5063988;28;20045;-84
2021/11/02 00:04:36;;;;;;;7.28;1.15;;;;;;;;;;5063876;28;20036;-84
2021/11/02 00:07:01;;;;;;;8.68;1.40;;;;;;;;;;5030736;28;20033;-84
2021/11/02 00:09:28;;;;;;;8.77;1.40;;;;;;;;;;5031856;28;20045;-84
2021/11/02 00:11:54;;;;;;;4.50;1.20;;;;;;;;;;5030645;28;20060;-84
2021/11/02 00:14:21;;;;;;;3.22;1.00;;;;;;;;;;5030579;28;20574;-84
2021/11/02 00:16:52;;;;;;;3.22;1.05;;;;;;;;;;5063256;28;20083;-84
2021/11/02 00:19:18;;;;;;;2.20;1.10;;;;;;;;;;5030675;28;20543;-84
2021/11/02 00:21:46;;;;;;;2.42;1.00;;;;;;;;;;5031830;28;20026;-84
2021/11/02 00:24:14;;;;;;;3.45;0.90;;;;;;;;;;5030778;28;20083;-84
2021/11/02 00:26:39;;;;;;;2.80;1.05;;;;;;;;;;5028481;28;20676;-84
2021/11/02 00:29:05;;;;;;;2.70;1.30;;;;;;;;;;5030301;28;20057;-84
2021/11/02 00:31:30;;;;;;;2.70;1.10;;;;;;;;;;5033791;28;20026;-84
2021/11/02 00:33:59;;;;;;;2.67;1.40;;;;;;;;;;5033989;28;20350;-84
2021/11/02 00:36:24;;;;;;;4.75;1.40;;;;;;;;;;5033529;28;20422;-84
2021/11/02 00:38:49;;;;;;;4.05;1.10;;;;;;;;;;5033491;28;20025;-84
2021/11/02 00:41:15;;;;;;;2.85;1.40;;;;;;;;;;5033630;28;20026;-84
2021/11/02 00:43:40;;;;;;;3.88;1.38;;;;;;;;;;5033459;28;20037;-84
2021/11/02 00:46:05;;;;;;;3.38;1.35;;;;;;;;;;5033828;28;20021;-84
2021/11/02 00:48:31;;;;;;;6.22;1.48;;;;;;;;;;5033779;28;20036;-84
2021/11/02 00:50:56;;;;;;;4.13;1.58;;;;;;;;;;5033339;28;20502;-84
2021/11/02 00:53:22;;;;;;;3.40;1.40;;;;;;;;;;5034657;28;20573;-84
2021/11/02 00:55:47;;;;;;;6.28;1.45;;;;;;;;;;5034705;28;20095;-84
2021/11/02 00:58:13;;;;;;;5.53;1.73;;;;;;;;;;5033514;28;20057;-84
2021/11/02 01:00:39;;;;;;;7.40;1.60;;;;;;;;;;5033332;28;20032;-84
2021/11/02 01:03:05;;;;;;;6.87;1.83;;;;;;;;;;5066382;28;20521;-84
2021/11/02 01:05:31;;;;;;;4.70;1.42;;;;;;;;;;5033471;28;20023;-84
2021/11/02 01:07:56;;;;;;;4.20;1.90;;;;;;;;;;5033095;28;20376;-84
2021/11/02 01:10:21;;;;;;;3.92;1.52;;;;;;;;;;5033531;28;20025;-84
2021/11/02 01:12:48;;;;;;;2.00;1.03;;;;;;;;;;5033009;28;20531;-84
2021/11/02 01:15:14;;;;;;;2.63;1.42;;;;;;;;;;5066561;28;20412;-84
2021/11/02 01:17:40;;;;;;;3.40;1.30;;;;;;;;;;5034249;28;20418;-84
2021/11/02 01:20:06;;;;;;;4.28;1.00;;;;;;;;;;5032762;28;20053;-84
2021/11/02 01:22:31;;;;;;;3.53;1.42;;;;;;;;;;5033024;28;20526;-84
2021/11/02 01:24:56;;;;;;;3.67;1.35;;;;;;;;;;5032613;28;20025;-84
2021/11/02 01:27:22;;;;;;;3.05;1.30;;;;;;;;;;5033026;28;20025;-84
2021/11/02 01:29:47;;;;;;;4.80;1.20;;;;;;;;;;5032790;28;20032;-84
2021/11/02 01:32:12;;;;;;;2.38;1.10;;;;;;;;;;5066034;28;20119;-84
2021/11/02 01:34:37;;;;;;;2.17;0.83;;;;;;;;;;5032606;28;20109;-84
2021/11/02 01:37:04;;;;;;;3.15;1.20;;;;;;;;;;5032175;28;20049;-84
2021/11/02 01:39:29;;;;;;;3.47;1.10;;;;;;;;;;5033056;28;20079;-84
2021/11/02 01:41:54;;;;;;;2.90;1.10;;;;;;;;;;5032631;28;20022;-84
2021/11/02 01:44:19;;;;;;;6.03;1.10;;;;;;;;;;5032213;28;20078;-84
2021/11/02 01:46:45;;;;;;;3.92;1.23;;;;;;;;;;5032595;28;20141;-84
2021/11/02 01:49:12;;;;;;;3.45;1.48;;;;;;;;;;5033510;28;20033;-84
2021/11/02 01:51:37;;;;;;;2.10;1.42;;;;;;;;;;5032671;28;20021;-85
2021/11/02 01:54:04;;;;;;;7.80;1.30;;;;;;;;;;5032322;28;20491;-84
2021/11/02 01:56:30;;;;;;;3.22;1.60;;;;;;;;;;5033082;28;20025;-84
2021/11/02 01:58:56;;;;;;;4.03;1.35;;;;;;;;;;5031908;28;20530;-84
2021/11/02 02:01:32;;;;;;;4.18;1.58;;;;;;;;;;5065127;28;20067;-84
2021/11/02 02:04:00;;;;;;;3.03;1.27;;;;;;;;;;5032249;28;20037;-84
2021/11/02 02:06:41;;;;;;;4.18;1.55;;;;;;;;;;5048634;28;20540;-84
2021/11/02 02:09:19;;;;;;;3.78;1.60;;;;;;;;;;5032229;28;20017;-84
2021/11/02 02:12:04;;;;;;;3.20;1.48;;;;;;;;;;5057858;28;20443;-84
2021/11/02 02:14:47;;;;;;;5.78;1.67;;;;;;;;;;5048298;28;20377;-84
2021/11/02 02:17:17;;;;;;;3.00;1.52;;;;;;;;;;5032005;28;20037;-84
2021/11/02 02:19:43;;;;;;;8.80;2.05;;;;;;;;;;5031543;28;20028;-84
2021/11/02 02:22:08;;;;;;;6.53;1.60;;;;;;;;;;5031982;28;20039;-84
2021/11/02 02:24:49;;;;;;;11.70;1.80;;;;;;;;;;5032740;28;20053;-84
2021/11/02 02:27:37;;;;;;;2.33;1.33;;;;;;;;;;5031906;28;20034;-84
2021/11/02 02:30:06;;;;;;;4.03;1.60;;;;;;;;;;5031068;28;20025;-84
2021/11/02 02:32:31;;;;;;;4.97;1.58;;;;;;;;;;5064505;28;20502;-84
2021/11/02 02:34:57;;;;;;;5.65;1.40;;;;;;;;;;5031333;28;20100;-84
2021/11/02 02:37:24;;;;;;;5.53;1.30;;;;;;;;;;5069334;28;20029;-84
2021/11/02 02:39:52;;;;;;;7.07;1.67;;;;;;;;;;5036498;28;20037;-84
2021/11/02 02:42:18;;;;;;;4.00;1.30;;;;;;;;;;5038575;28;20525;-84
2021/11/02 02:44:45;;;;;;;1.65;1.02;;;;;;;;;;5038405;28;20048;-84
2021/11/02 02:47:10;;;;;;;5.13;1.50;;;;;;;;;;5034217;28;20361;-84
2021/11/02 02:49:36;;;;;;;3.03;1.60;;;;;;;;;;5036835;28;20036;-84
2021/11/02 02:52:01;;;;;;;8.15;1.20;;;;;;;;;;5041259;28;20083;-84
2021/11/02 02:54:27;;;;;;;3.37;1.30;;;;;;;;;;5032269;28;20033;-84
2021/11/02 02:56:53;;;;;;;13.53;1.27;;;;;;;;;;5040790;28;20043;-84
2021/11/02 02:59:20;;;;;;;3.70;1.40;;;;;;;;;;5036639;28;20401;-84
2021/11/02 03:01:46;;;;;;;3.60;1.20;;;;;;;;;;5037942;28;20022;-84
2021/11/02 03:04:19;;;;;;;2.47;1.27;;;;;;;;;;5026572;28;20358;-84
2021/11/02 03:06:46;;;;;;;4.43;1.43;;;;;;;;;;5037402;28;20029;-84
2021/11/02 03:09:11;;;;;;;1.83;1.00;;;;;;;;;;5067681;28;20477;-84
2021/11/02 03:11:38;;;;;;;3.33;1.15;;;;;;;;;;5036953;28;20032;-84
2021/11/02 03:14:06;;;;;;;1.67;1.10;;;;;;;;;;5041989;28;20031;-84
2021/11/02 03:54:37;;;;;;;1.73;1.05;;;;;;;;;;5035045;28;20022;-84
2021/11/02 03:57:13;;;;;;;4.18;1.38;;;;;;;;;;5034275;28;20078;-84
2021/11/02 04:35:14;;;;;;;5.13;1.50;;;;;;;;;;5043170;28;20025;-84
2021/11/02 05:47:59;;;;;;;3.08;1.58;;;;;;;;;;5034418;28;20024;-84
2021/11/02 05:58:26;;;;;;;6.57;2.03;;;;;;;;;;5043190;28;20037;-84
2021/11/02 06:01:12;;;;;;;3.28;1.73;;;;;;;;;;5036720;28;20078;-84
2021/11/02 06:28:37;;;;;;;3.72;2.20;;;;;;;;;;5037279;28;20036;-85
2021/11/02 06:31:09;;;;;;;4.60;2.03;;;;;;;;;;5073379;28;20024;-85
2021/11/02 06:36:13;;;;;;;5.05;2.28;;;;;;;;;;5040736;28;20136;-85
2021/11/02 06:49:57;;;;;;;5.55;2.00;;;;;;;;;;5041844;28;20017;-85
2021/11/02 06:57:44;;;;;;;5.25;2.63;;;;;;;;;;5029340;28;20040;-83
2021/11/02 07:00:27;;;;;;;12.57;2.80;;;;;;;;;;5031225;28;20116;-83
2021/11/02 07:20:33;;;;;;;4.38;1.63;;;;;;;;;;5014484;28;20030;-83
2021/11/02 07:22:41;;;;;;;2.75;1.38;;;;;;;;;;5031529;28;20037;-83
2021/11/02 08:47:14;;;;;;;0.70;0.20;;;;;;;;;;5033253;28;20389;-83
2021/11/02 08:49:45;;;;;;;8.90;1.52;;;;;;;;;;5040065;28;20037;-83
2021/11/02 08:52:13;;;;;;;3.53;2.00;;;;;;;;;;5036476;28;20021;-83
2021/11/02 08:54:41;;;;;;;5.55;1.38;;;;;;;;;;5039733;28;20117;-83
2021/11/02 08:57:06;;;;;;;6.65;2.28;;;;;;;;;;5033267;28;20083;-83
2021/11/02 08:59:33;;;;;;;5.35;2.17;;;;;;;;;;5039296;28;20025;-83
2021/11/02 09:01:59;;;;;;;5.82;1.75;;;;;;;;;;5036037;28;20467;-84
2021/11/02 09:04:31;;;;;;;10.15;2.50;;;;;;;;;;5039111;28;20113;-83
2021/11/02 09:06:58;;;;;;;5.35;1.63;;;;;;;;;;5035230;28;20025;-83
2021/11/02 09:09:23;;;;;;;8.38;2.70;;;;;;;;;;5038068;28;20895;-83
2021/11/02 09:11:49;;;;;;;5.10;2.05;;;;;;;;;;5026227;28;20048;-82
2021/11/02 09:14:16;;;;;;;6.90;2.35;;;;;;;;;;5061560;28;20025;-83
2021/11/02 09:16:45;;;;;;;6.20;1.77;;;;;;;;;;5064279;28;20056;-83
2021/11/02 09:19:12;;;;;;;4.72;1.92;;;;;;;;;;5069373;28;20100;-83
2021/11/02 09:21:37;;;;;;;2.83;1.30;;;;;;;;;;5035880;28;20017;-83
2021/11/02 09:24:02;;;;;;;3.05;1.42;;;;;;;;;;5035882;28;20085;-83
2021/11/02 09:26:30;;;;;;;4.15;1.70;;;;;;;;;;5035658;28;20024;-83
2021/11/02 09:28:56;;;;;;;3.58;1.70;;;;;;;;;;5036740;28;20070;-82
2021/11/02 09:31:27;;;;;;;2.80;1.42;;;;;;;;;;5033572;28;20365;-83
2021/11/02 09:33:53;;;;;;;6.03;1.83;;;;;;;;;;5037493;28;20028;-83
2021/11/02 09:36:24;;;;;;;5.20;1.73;;;;;;;;;;5068800;28;20710;-83
2021/11/02 09:38:52;;;;;;;6.18;2.25;;;;;;;;;;5036148;28;20022;-83
2021/11/02 09:41:21;;;;;;;4.63;1.23;;;;;;;;;;5069073;28;20021;-83
2021/11/02 09:43:58;;;;;;;3.92;1.92;;;;;;;;;;5035493;28;20021;-83
2021/11/02 09:46:24;;;;;;;6.88;2.33;;;;;;;;;;5050968;28;20401;-83
2021/11/02 09:49:01;;;;;;;4.78;2.13;;;;;;;;;;5040013;28;20052;-86
2021/11/02 09:51:42;;;;;;;5.28;1.75;;;;;;;;;;5037053;28;20029;-86
2021/11/02 09:54:24;;;;;;;3.85;1.83;;;;;;;;;;5036958;28;20381;-87
2021/11/02 09:57:05;;;;;;;3.55;1.95;;;;;;;;;;5033608;28;20082;-87
2021/11/02 09:59:52;;;;;;;2.80;1.00;;;;;;;;;;5027150;28;20033;-87
2021/11/02 10:02:55;;;;;;;4.05;1.88;;;;;;;;;;5069260;28;20020;-88
2021/11/02 10:05:45;;;;;;;8.55;1.95;;;;;;;;;;4991309;28;20464;-88
2021/11/02 10:08:19;;;;;;;2.05;1.50;;;;;;;;;;5029250;28;20067;-87
2021/11/02 10:10:47;;;;;;;3.63;1.52;;;;;;;;;;5041775;28;20393;-83
2021/11/02 10:13:14;;;;;;;4.45;2.20;;;;;;;;;;5033942;28;20017;-83
2021/11/02 10:15:46;;;;;;;8.75;2.35;;;;;;;;;;5035108;28;20021;-83
2021/11/02 10:18:21;;;;;;;6.28;2.10;;;;;;;;;;5034236;28;20025;-83
2021/11/02 10:21:12;;;;;;;6.00;2.30;;;;;;;;;;5026731;28;20029;-85
2021/11/02 10:23:46;;;;;;;3.08;1.65;;;;;;;;;;5034741;28;20535;-84
2021/11/02 10:26:44;;;;;;;8.05;2.83;;;;;;;;;;5035445;28;20072;-84
2021/11/02 10:29:14;;;;;;;5.25;2.38;;;;;;;;;;5017967;28;20449;-84
2021/11/02 10:31:50;;;;;;;6.13;2.15;;;;;;;;;;5033224;28;20056;-84
2021/11/02 10:34:27;;;;;;;5.00;2.47;;;;;;;;;;5037746;28;20025;-85
2021/11/02 10:37:02;;;;;;;4.30;2.15;;;;;;;;;;5032592;28;20036;-85
2021/11/02 10:39:40;;;;;;;3.90;1.83;;;;;;;;;;5040188;28;20070;-85
2021/11/02 10:42:16;;;;;;;4.50;2.17;;;;;;;;;;5028086;28;20528;-84
2021/11/02 10:44:44;;;;;;;5.20;2.28;;;;;;;;;;5045773;28;20171;-85
2021/11/02 10:47:16;;;;;;;5.68;2.22;;;;;;;;;;5030162;28;20040;-85
2021/11/02 10:50:01;;;;;;;9.65;2.05;;;;;;;;;;5038415;28;20053;-85
2021/11/02 10:52:27;;;;;;;5.28;1.95;;;;;;;;;;5033836;28;20029;-85
2021/11/02 10:55:12;;;;;;;8.00;2.05;;;;;;;;;;5037781;28;20033;-84
2021/11/02 10:57:56;;;;;;;5.15;2.22;;;;;;;;;;5034098;28;20025;-85
2021/11/02 11:00:22;;;;;;;11.80;2.03;;;;;;;;;;5042360;28;20374;-85
2021/11/02 11:02:50;;;;;;;9.10;2.05;;;;;;;;;;5033720;28;20127;-84
2021/11/02 11:05:15;;;;;;;3.53;1.67;;;;;;;;;;5041919;28;20488;-85
2021/11/02 11:07:41;;;;;;;6.15;1.80;;;;;;;;;;5069948;28;20025;-85
2021/11/02 11:10:08;;;;;;;4.25;1.38;;;;;;;;;;5034183;28;20036;-85
2021/11/02 11:12:35;;;;;;;9.20;1.83;;;;;;;;;;5038870;28;20030;-85
2021/11/02 11:15:04;;;;;;;4.95;1.92;;;;;;;;;;5035310;28;20099;-84
2021/11/02 11:17:31;;;;;;;7.40;2.13;;;;;;;;;;5071187;28;20036;-84
2021/11/02 11:20:23;;;;;;;2.80;1.58;;;;;;;;;;5031524;28;20017;-82
2021/11/02 11:22:50;;;;;;;3.55;1.90;;;;;;;;;;5024637;28;20041;-83
2021/11/02 11:25:34;;;;;;;6.65;2.13;;;;;;;;;;5067238;28;20025;-83
2021/11/02 11:28:02;;;;;;;4.78;2.30;;;;;;;;;;5064670;28;20025;-83
2021/11/02 11:30:31;;;;;;;3.55;2.00;;;;;;;;;;5030426;28;20516;-82
2021/11/02 11:32:57;;;;;;;5.95;2.35;;;;;;;;;;5066094;28;20024;-83
2021/11/02 11:35:22;;;;;;;4.53;1.92;;;;;;;;;;5032703;28;20532;-83
2021/11/02 11:37:48;;;;;;;9.25;2.35;;;;;;;;;;5072265;28;20024;-82
2021/11/02 11:40:18;;;;;;;5.82;2.50;;;;;;;;;;5030200;28;20021;-82
2021/11/02 11:42:51;;;;;;;4.07;2.03;;;;;;;;;;5039544;28;20029;-82
2021/11/02 11:45:16;;;;;;;3.42;1.65;;;;;;;;;;5036785;28;20043;-83
2021/11/02 11:47:42;;;;;;;4.30;2.70;;;;;;;;;;5030364;28;20021;-82
2021/11/02 11:50:14;;;;;;;3.95;2.28;;;;;;;;;;5036963;28;20048;-82
2021/11/02 11:52:50;;;;;;;8.00;2.90;;;;;;;;;;5037932;28;20388;-83
2021/11/02 11:55:26;;;;;;;6.13;2.22;;;;;;;;;;5033118;28;20039;-82
2021/11/02 11:58:04;;;;;;;5.50;2.72;;;;;;;;;;5033417;28;20108;-82
2021/11/02 12:00:30;;;;;;;4.55;2.40;;;;;;;;;;5029858;28;20017;-82
2021/11/02 12:02:55;;;;;;;8.40;3.03;;;;;;;;;;5036761;28;20025;-83
2021/11/02 12:05:21;;;;;;;3.42;1.75;;;;;;;;;;5034133;28;20032;-82
2021/11/02 12:07:54;;;;;;;4.18;2.25;;;;;;;;;;5032794;28;20404;-82
2021/11/02 12:10:26;;;;;;;6.22;2.42;;;;;;;;;;5028436;28;20021;-83
2021/11/02 12:12:54;;;;;;;2.92;1.60;;;;;;;;;;5035584;28;20389;-83
2021/11/02 12:15:20;;;;;;;3.88;2.53;;;;;;;;;;5034507;28;20028;-82
2021/11/02 12:17:47;;;;;;;2.90;1.85;;;;;;;;;;5028026;28;20103;-83
2021/11/02 12:20:15;;;;;;;10.95;2.35;;;;;;;;;;5028407;28;20032;-82
2021/11/02 12:22:51;;;;;;;3.97;2.42;;;;;;;;;;5067969;28;20024;-83
2021/11/02 12:25:19;;;;;;;4.80;2.58;;;;;;;;;;5047854;28;20044;-82
2021/11/02 12:27:44;;;;;;;5.68;2.42;;;;;;;;;;5062639;28;20034;-83
2021/11/02 12:30:11;;;;;;;4.38;2.50;;;;;;;;;;5027580;28;20496;-82
2021/11/02 12:32:39;;;;;;;2.72;2.05;;;;;;;;;;5070099;28;20024;-82
2021/11/02 12:35:11;;;;;;;3.20;1.92;;;;;;;;;;5039448;28;20033;-82
2021/11/02 12:37:48;;;;;;;4.38;1.77;;;;;;;;;;5020074;28;20040;-82
2021/11/02 12:40:22;;;;;;;2.47;1.55;;;;;;;;;;5037664;28;20032;-83
2021/11/02 12:42:47;;;;;;;3.17;1.83;;;;;;;;;;5037695;28;20013;-83
2021/11/02 12:45:13;;;;;;;4.10;1.52;;;;;;;;;;5035869;28;20053;-84
2021/11/02 12:47:38;;;;;;;2.90;1.77;;;;;;;;;;5037185;28;20428;-84
2021/11/02 12:50:06;;;;;;;3.75;1.80;;;;;;;;;;5034580;28;20432;-83
2021/11/02 12:52:33;;;;;;;3.45;1.30;;;;;;;;;;5035965;28;20541;-83
2021/11/02 12:55:03;;;;;;;2.65;1.50;;;;;;;;;;5037297;28;20420;-83
2021/11/02 12:57:35;;;;;;;2.83;1.75;;;;;;;;;;5031792;28;20412;-83
2021/11/02 13:00:01;;;;;;;4.25;1.55;;;;;;;;;;5048330;28;20019;-83
2021/11/02 13:02:34;;;;;;;4.18;2.25;;;;;;;;;;5068688;28;20059;-83
2021/11/02 13:05:05;;;;;;;2.45;1.42;;;;;;;;;;5038911;28;20558;-83
2021/11/02 13:07:35;;;;;;;4.05;1.45;;;;;;;;;;5069188;28;20025;-83
2021/11/02 13:10:00;;;;;;;4.85;1.60;;;;;;;;;;5038511;28;20104;-83
2021/11/02 13:12:26;;;;;;;7.00;1.95;;;;;;;;;;5069395;28;20056;-83
2021/11/02 13:14:52;;;;;;;2.20;1.38;;;;;;;;;;5031691;28;20028;-83
2021/11/02 13:17:20;;;;;;;3.72;1.77;;;;;;;;;;5036960;28;20491;-83
2021/11/02 13:19:47;;;;;;;3.67;2.08;;;;;;;;;;5035928;28;20036;-82
2021/11/02 13:22:18;;;;;;;3.10;1.80;;;;;;;;;;5036182;28;20746;-82
2021/11/02 13:25:02;;;;;;;3.50;1.57;;;;;;;;;;5035215;28;20026;-83
2021/11/02 13:27:33;;;;;;;3.20;1.95;;;;;;;;;;5046932;28;20029;-83
2021/11/02 13:30:17;;;;;;;3.70;2.27;;;;;;;;;;5034859;28;20030;-83
2021/11/02 13:32:59;;;;;;;5.85;2.00;;;;;;;;;;5043512;28;20026;-82
2021/11/02 13:35:44;;;;;;;8.18;1.75;;;;;;;;;;5066728;28;20021;-83
2021/11/02 13:38:28;;;;;;;5.20;1.73;;;;;;;;;;5069465;28;20037;-83
2021/11/02 13:40:54;;;;;;;4.65;1.67;;;;;;;;;;5036897;28;20032;-83
2021/11/02 13:43:23;;;;;;;5.75;1.70;;;;;;;;;;5028590;28;20727;-83
2021/11/02 13:45:48;;;;;;;4.85;2.08;;;;;;;;;;5038085;28;20014;-83
2021/11/02 13:48:14;;;;;;;4.40;1.85;;;;;;;;;;5032876;28;20439;-82
2021/11/02 13:50:39;;;;;;;4.30;2.03;;;;;;;;;;5031860;28;20476;-83
2021/11/02 13:53:05;;;;;;;9.40;2.45;;;;;;;;;;5037320;28;20465;-83
2021/11/02 13:55:30;;;;;;;3.28;1.70;;;;;;;;;;5035941;28;20037;-82
2021/11/02 13:57:55;;;;;;;3.42;1.70;;;;;;;;;;5034210;28;20021;-82
2021/11/02 14:00:20;;;;;;;3.30;1.60;;;;;;;;;;5036401;28;20071;-82
2021/11/02 14:02:46;;;;;;;2.45;1.50;;;;;;;;;;5036582;28;20052;-82
2021/11/02 14:05:11;;;;;;;4.78;1.80;;;;;;;;;;5034924;28;20021;-83
2021/11/02 14:07:37;;;;;;;3.15;1.73;;;;;;;;;;5036298;28;20033;-83
2021/11/02 14:10:05;;;;;;;3.55;1.48;;;;;;;;;;5037748;28;20032;-83
2021/11/02 14:12:52;;;;;;;2.67;1.58;;;;;;;;;;5069749;28;20495;-83
2021/11/02 14:15:18;;;;;;;5.03;1.80;;;;;;;;;;5037491;28;20375;-82
2021/11/02 14:17:44;;;;;;;3.22;1.65;;;;;;;;;;5036149;28;20029;-83
2021/11/02 14:20:32;;;;;;;3.40;1.60;;;;;;;;;;5037357;28;20029;-83
2021/11/02 14:22:58;;;;;;;8.18;1.50;;;;;;;;;;5063788;28;20021;-83
2021/11/02 14:25:32;;;;;;;2.95;1.48;;;;;;;;;;5065420;28;20460;-83
2021/11/02 14:27:57;;;;;;;3.40;1.48;;;;;;;;;;5035499;28;20029;-83
2021/11/02 14:30:23;;;;;;;2.30;1.30;;;;;;;;;;5033233;28;20453;-83
2021/11/02 14:32:50;;;;;;;3.10;1.70;;;;;;;;;;5034817;28;20032;-83
2021/11/02 14:35:41;;;;;;;4.43;1.35;;;;;;;;;;5031898;28;20447;-83
2021/11/02 14:38:11;;;;;;;2.53;1.40;;;;;;;;;;5026493;28;20033;-83
2021/11/02 14:40:40;;;;;;;4.40;1.40;;;;;;;;;;5036584;28;20466;-82
2021/11/02 14:43:11;;;;;;;2.60;1.30;;;;;;;;;;5036026;28;20112;-82
2021/11/02 14:45:41;;;;;;;8.30;1.60;;;;;;;;;;5047951;28;20036;-82
2021/11/02 14:48:27;;;;;;;1.80;1.15;;;;;;;;;;5036858;28;20040;-82
2021/11/02 14:50:56;;;;;;;2.78;1.20;;;;;;;;;;5056428;28;20105;-83
2021/11/02 14:53:24;;;;;;;2.45;1.38;;;;;;;;;;5047893;28;20075;-83
2021/11/02 14:55:50;;;;;;;3.60;1.27;;;;;;;;;;5047982;28;20033;-83
2021/11/02 14:58:34;;;;;;;3.33;1.50;;;;;;;;;;5036184;28;20075;-83
2021/11/02 15:01:00;;;;;;;4.43;1.63;;;;;;;;;;5040510;28;20044;-83
2021/11/02 15:03:32;;;;;;;3.10;1.60;;;;;;;;;;5036337;28;20083;-83
2021/11/02 15:05:57;;;;;;;;;;;;;;;;;;5071765;28;20473;-82
2021/11/02 15:08:23;;;;;;;3.72;2.08;;;;;;;;;;5034395;28;19909;-83
2021/11/02 15:10:49;;;;;;;5.22;1.92;;;;;;;;;;5072157;28;20690;-83
2021/11/02 15:13:19;;;;;;;5.30;1.70;;;;;;;;;;5031987;28;20086;-83
2021/11/02 15:15:44;;;;;;;3.10;1.80;;;;;;;;;;5072656;28;20112;-84
2021/11/02 15:18:11;;;;;;;5.63;1.95;;;;;;;;;;5031265;28;20120;-83
2021/11/02 15:20:36;;;;;;;3.92;1.83;;;;;;;;;;5038444;28;20092;-83
2021/11/02 15:23:02;;;;;;;8.15;1.88;;;;;;;;;;5073005;28;20025;-83
2021/11/02 15:25:27;;;;;;;2.88;1.45;;;;;;;;;;5033979;28;20021;-83
2021/11/02 15:27:57;;;;;;;4.25;2.25;;;;;;;;;;5038302;28;20162;-83
2021/11/02 15:30:22;;;;;;;3.75;1.60;;;;;;;;;;5033788;28;20025;-83
2021/11/02 15:32:50;;;;;;;5.40;1.70;;;;;;;;;;5074726;28;20396;-83
2021/11/02 15:35:16;;;;;;;4.30;1.95;;;;;;;;;;5025277;28;20053;-83
2021/11/02 15:37:43;;;;;;;4.57;2.08;;;;;;;;;;5039348;28;20025;-83
2021/11/02 15:40:20;;;;;;;4.18;1.77;;;;;;;;;;5065162;28;20028;-83
2021/11/02 15:42:47;;;;;;;7.70;1.73;;;;;;;;;;5036618;28;20021;-83
2021/11/02 15:45:25;;;;;;;4.22;1.63;;;;;;;;;;5031411;28;20036;-83
2021/11/02 15:47:52;;;;;;;5.80;2.08;;;;;;;;;;5031114;28;20389;-83
2021/11/02 15:50:19;;;;;;;10.07;2.42;;;;;;;;;;5068444;28;20454;-83
2021/11/02 15:52:45;;;;;;;10.13;2.33;;;;;;;;;;5033341;28;20401;-83
2021/11/02 15:55:11;;;;;;;6.05;2.75;;;;;;;;;;5034694;28;20037;-82
2021/11/02 15:57:38;;;;;;;5.95;2.55;;;;;;;;;;5037265;28;20022;-83
2021/11/02 16:00:04;;;;;;;5.03;2.78;;;;;;;;;;5033966;28;20040;-84
2021/11/02 16:02:34;;;;;;;6.20;3.15;;;;;;;;;;5037027;28;20568;-83
2021/11/02 16:05:03;;;;;;;4.38;2.63;;;;;;;;;;5036472;28;20108;-81
2021/11/02 16:07:32;;;;;;;5.18;2.85;;;;;;;;;;5069514;28;20025;-83
2021/11/02 16:09:57;;;;;;;14.15;2.97;;;;;;;;;;5036347;28;20029;-82
2021/11/02 16:12:25;;;;;;;6.50;3.30;;;;;;;;;;5070184;28;20535;-82
2021/11/02 16:14:56;;;;;;;9.43;3.10;;;;;;;;;;5038463;28;20071;-82
2021/11/02 16:17:21;;;;;;;6.30;2.65;;;;;;;;;;5036534;28;20468;-82
2021/11/02 16:19:48;;;;;;;7.03;2.72;;;;;;;;;;5041490;28;20071;-82
2021/11/02 16:22:13;;;;;;;4.07;2.15;;;;;;;;;;5039855;28;20074;-82
2021/11/02 16:24:39;;;;;;;6.30;2.50;;;;;;;;;;5034737;28;20476;-82
2021/11/02 16:27:21;;;;;;;6.78;2.20;;;;;;;;;;5028917;28;20065;-81
2021/11/02 16:29:46;;;;;;;;;;;;;;;;;;5066309;28;20057;-81
2021/11/02 16:32:19;;;;;;;6.78;2.58;;;;;;;;;;5033244;28;19909;-81
2021/11/02 16:34:44;;;;;;;5.63;2.70;;;;;;;;;;5071001;28;20278;-81
2021/11/02 16:37:09;;;;;;;5.93;2.67;;;;;;;;;;5040771;28;20076;-81
2021/11/02 16:39:34;;;;;;;3.95;2.30;;;;;;;;;;5073663;28;20024;-81
2021/11/02 16:42:04;;;;;;;7.28;3.15;;;;;;;;;;5042423;28;20041;-81
2021/11/02 16:44:31;;;;;;;5.40;2.60;;;;;;;;;;5039217;28;20105;-81
2021/11/02 16:47:07;;;;;;;5.82;2.88;;;;;;;;;;5032055;28;20021;-81
2021/11/02 16:49:33;;;;;;;7.95;3.13;;;;;;;;;;5040806;28;20457;-81
2021/11/02 16:52:07;;;;;;;12.70;5.43;;;;;;;;;;5036448;28;20488;-81
2021/11/02 16:54:34;;;;;;;26.40;8.50;;;;;;;;;;5035942;28;20744;-81
2021/11/02 16:57:17;;;;;;;30.45;9.75;;;;;;;;;;5076015;28;20022;-81
2021/11/02 16:59:42;;;;;;;28.52;8.35;;;;;;;;;;5071667;28;20029;-80
2021/11/02 17:02:16;;;;;;;29.98;9.20;;;;;;;;;;5034993;28;20037;-81
2021/11/02 17:05:05;;;;;;;24.65;7.95;;;;;;;;;;5033960;28;20686;-81
2021/11/02 17:07:35;;;;;;;20.52;7.40;;;;;;;;;;5027458;28;20120;-80
2021/11/02 17:10:19;;;;;;;20.95;6.85;;;;;;;;;;5066790;28;20075;-81
2021/11/02 17:12:49;;;;;;;14.77;6.20;;;;;;;;;;5038247;28;20109;-81
2021/11/02 17:15:19;;;;;;;11.07;5.20;;;;;;;;;;5038563;28;20396;-81
2021/11/02 17:17:45;;;;;;;10.40;5.90;;;;;;;;;;5035322;28;20021;-81
2021/11/02 17:20:10;;;;;;;14.50;4.80;;;;;;;;;;5035452;28;20484;-80
2021/11/02 17:22:36;;;;;;;7.93;4.23;;;;;;;;;;5071086;28;20010;-81
2021/11/02 17:25:02;;;;;;;15.25;4.95;;;;;;;;;;5039589;28;20017;-81
2021/11/02 17:27:27;;;;;;;16.20;6.30;;;;;;;;;;5044543;28;20013;-81
2021/11/02 17:29:52;;;;;;;10.00;5.37;;;;;;;;;;5068626;28;20024;-81
2021/11/02 17:32:18;;;;;;;9.57;5.60;;;;;;;;;;5040460;28;20098;-81
2021/11/02 17:34:44;;;;;;;12.25;6.32;;;;;;;;;;5039197;28;20032;-81
2021/11/02 17:37:11;;;;;;;12.90;6.20;;;;;;;;;;5037747;28;20033;-81
2021/11/02 17:39:36;;;;;;;14.95;6.78;;;;;;;;;;5071840;28;20029;-81
2021/11/02 17:42:04;;;;;;;20.30;6.97;;;;;;;;;;5036286;28;20022;-81
2021/11/02 17:44:29;;;;;;;19.80;8.30;;;;;;;;;;5040906;28;20507;-81
2021/11/02 17:46:54;;;;;;;20.87;9.20;;;;;;;;;;5077041;28;20021;-81
2021/11/02 17:49:20;;;;;;;14.97;7.43;;;;;;;;;;5065696;28;20412;-81
2021/11/02 17:51:46;;;;;;;17.03;7.30;;;;;;;;;;5043184;28;20017;-81
2021/11/02 17:54:11;;;;;;;12.77;6.13;;;;;;;;;;5035465;28;20052;-81
2021/11/02 17:56:38;;;;;;;12.00;5.17;;;;;;;;;;5066761;28;20100;-80
2021/11/02 17:59:04;;;;;;;11.33;5.70;;;;;;;;;;5036124;28;20025;-81
2021/11/02 18:01:30;;;;;;;10.23;5.53;;;;;;;;;;5032775;28;20028;-81
2021/11/02 18:03:58;;;;;;;9.97;5.20;;;;;;;;;;5038657;28;20374;-81
2021/11/02 18:06:23;;;;;;;10.97;5.17;;;;;;;;;;5032116;28;20038;-81
2021/11/02 18:08:49;;;;;;;11.30;5.90;;;;;;;;;;5037182;28;20035;-81
2021/11/02 18:11:15;;;;;;;33.87;10.80;;;;;;;;;;5034274;28;20083;-82
2021/11/02 18:13:40;;;;;;;34.17;12.17;;;;;;;;;;5036501;28;20025;-81
2021/11/02 18:16:06;;;;;;;30.73;12.83;;;;;;;;;;5031652;28;20030;-81
2021/11/02 18:18:37;;;;;;;21.03;10.27;;;;;;;;;;5036914;28;20104;-81
2021/11/02 18:21:03;;;;;;;12.37;6.60;;;;;;;;;;5034169;28;20072;-81
2021/11/02 18:23:28;;;;;;;10.25;5.38;;;;;;;;;;5034756;28;20458;-81
2021/11/02 18:25:53;;;;;;;11.25;5.55;;;;;;;;;;5037282;28;20021;-81
2021/11/02 18:28:19;;;;;;;27.92;8.90;;;;;;;;;;5035515;28;20033;-81
2021/11/02 18:30:44;;;;;;;30.55;9.38;;;;;;;;;;5037403;28;20025;-81
2021/11/02 18:33:09;;;;;;;22.97;8.07;;;;;;;;;;5033881;28;20034;-81
2021/11/02 18:35:38;;;;;;;14.13;5.90;;;;;;;;;;5035908;28;20054;-81
2021/11/02 18:38:03;;;;;;;13.00;5.68;;;;;;;;;;5034753;28;20021;-81
2021/11/02 18:40:29;;;;;;;8.97;5.20;;;;;;;;;;5038334;28;20480;-81
2021/11/02 18:42:54;;;;;;;10.18;4.60;;;;;;;;;;5034651;28;20032;-81
2021/11/02 18:45:21;;;;;;;10.82;5.10;;;;;;;;;;5037691;28;20163;-81
2021/11/02 18:47:47;;;;;;;11.75;4.93;;;;;;;;;;5035297;28;20029;-80
2021/11/02 18:50:13;;;;;;;8.60;4.25;;;;;;;;;;5071083;28;20392;-81
2021/11/02 18:52:38;;;;;;;9.80;4.75;;;;;;;;;;5066309;28;20029;-81
2021/11/02 18:55:04;;;;;;;8.48;4.20;;;;;;;;;;5034988;28;20473;-81
2021/11/02 18:57:29;;;;;;;13.75;4.10;;;;;;;;;;5026652;28;20045;-81
2021/11/02 18:59:55;;;;;;;16.20;4.85;;;;;;;;;;5034184;28;20022;-81
2021/11/02 19:02:20;;;;;;;10.32;4.57;;;;;;;;;;5031034;28;20087;-81
2021/11/02 19:04:46;;;;;;;9.25;4.53;;;;;;;;;;5034819;28;20465;-81
2021/11/02 19:07:11;;;;;;;9.88;4.63;;;;;;;;;;5073287;28;20060;-81
2021/11/02 19:09:36;;;;;;;12.07;5.13;;;;;;;;;;5036457;28;20021;-80
2021/11/02 19:12:02;;;;;;;9.53;5.33;;;;;;;;;;5036526;28;20036;-81
2021/11/02 19:14:28;;;;;;;10.20;4.97;;;;;;;;;;5032019;28;20021;-80
2021/11/02 19:16:53;;;;;;;21.15;4.95;;;;;;;;;;5032491;28;20021;-80
2021/11/02 19:19:18;;;;;;;10.80;5.43;;;;;;;;;;5032044;28;20412;-80
2021/11/02 19:21:44;;;;;;;15.90;6.70;;;;;;;;;;5036801;28;20464;-80
2021/11/02 19:24:09;;;;;;;18.90;6.57;;;;;;;;;;5032381;28;20025;-81
2021/11/02 19:26:34;;;;;;;17.83;7.33;;;;;;;;;;5034950;28;20029;-81
2021/11/02 19:29:00;;;;;;;26.17;8.90;;;;;;;;;;5038500;28;20032;-80
2021/11/02 19:31:26;;;;;;;31.53;8.70;;;;;;;;;;5031567;28;20032;-80
2021/11/02 19:33:52;;;;;;;21.03;8.23;;;;;;;;;;5038702;28;20417;-81
2021/11/02 19:36:18;;;;;;;19.10;8.00;;;;;;;;;;5037631;28;20029;-81
2021/11/02 19:38:44;;;;;;;17.70;6.20;;;;;;;;;;5037264;28;20021;-80
2021/11/02 19:41:09;;;;;;;17.73;7.00;;;;;;;;;;5036150;28;20027;-80
2021/11/02 19:43:35;;;;;;;13.73;5.93;;;;;;;;;;5035962;28;20026;-80
2021/11/02 19:46:00;;;;;;;10.47;5.27;;;;;;;;;;5040011;28;20010;-80
2021/11/02 19:48:25;;;;;;;13.67;6.40;;;;;;;;;;5042670;28;20017;-81